Hauptseite
METAR-TAF:

METAR-TAF

Flughäfen :

Friedrichshafen, Deutschland

Flughafen Friedrichshafen

Breite: 47-40N, Länge: 009-31E, Höhe: 416 m

Beobachtung

Neuester Wetterbericht von vor 32 Minuten, um 05:20 UTC
Wind 2 kt aus unterschiedlichen Richtungen
Temperatur 11°C
Luftfeuchtigkeit 76%
Luftdruck 1019 hPa
Sichtweite 10 km oder mehr
Durchbrochene Bewölkung in der Höhe von 4000 ft
Geschlossene Wolkendecke in der Höhe von 4600 ft
Leichtregen

METAR: EDNY 260520Z VRB02KT 9999 -RA BKN040 OVC046 11/07 Q1019

Zeit: 07:52 (05:52 UTC)

Prognose

Neuester Wetterbericht von vor 52 Minuten, um 05:00 UTC
Gültige Prognose vom 26 um 06 UTC bis 27 um 06 UTC
Wind 7 kt aus West/Südwest
Sichtweite 10 km oder mehr
Aufgelockert bewölkt in der Höhe von 3000 ft
Übergehend zu
vom 26 um 16 UTC bis 26 um 18 UTC
Wind 3 kt aus unterschiedlichen Richtungen

TAF: EDNY 260500Z 2606/2706 25007KT 9999 SCT030 BECMG 2616/2618 VRB03KT

Wetterbeobachtungen und Prognosen von mehr als 4000 Flughäfen (METAR und TAF Bericht).

Die verfügbaren Stationen werden durch gelbe und rote Markierungen auf der Karte dargestellt.

Führen Sie die Maus auf sie, um den Namen der Station zu sehen.

Darauf klicken, um die Beobachtung von Wetterbeobachtungen und Prognosen zu sehen.

Um die Karte zu ändern : klicken Sie auf den grünen Tasten mit einem schwarzen Kreuz Zum Vergrößern, auf den grünen Button mit einem Gedankenstrich zu verkleinern, oder auf die grünen Pfeile für benachbarte Karten.


METAR-TAF: